Time;durP1;ratioP1;P1;durP2;ratioP2;P2;SDS_P1;SDS_P2;PMS_P1;PMS_P2;Temp;Humidity;BMP_temperature;BMP_pressure;BME280_temperature;BME280_humidity;BME280_pressure;Samples;Min_cycle;Max_cycle;Signal;HPM_P1;HPM_P2
2022/08/20 00:02:16;;;;;;;3.90;1.50;;;22.80;85.90;;;;;;7381251;19;20757;-46
2022/08/20 00:04:46;;;;;;;3.50;2.00;;;22.80;85.20;;;;;;7380566;19;20897;-46
2022/08/20 00:07:16;;;;;;;1.93;1.53;;;22.70;87.10;;;;;;7381243;19;20425;-47
2022/08/20 00:09:48;;;;;;;1.73;1.50;;;22.70;86.40;;;;;;7380296;19;20367;-46
2022/08/20 00:12:19;;;;;;;2.13;1.77;;;22.70;88.00;;;;;;7383304;19;20376;-46
2022/08/20 00:14:48;;;;;;;2.17;1.77;;;22.60;88.50;;;;;;7380110;19;20372;-46
2022/08/20 00:17:18;;;;;;;2.07;1.40;;;22.70;90.80;;;;;;7377617;19;20418;-46
2022/08/20 00:19:47;;;;;;;2.27;1.40;;;22.80;88.80;;;;;;7382839;19;20379;-46
2022/08/20 00:22:17;;;;;;;1.70;1.30;;;22.70;88.10;;;;;;7395186;19;20380;-46
2022/08/20 00:24:49;;;;;;;3.10;1.30;;;22.70;88.50;;;;;;7395685;19;21283;-46
2022/08/20 00:27:18;;;;;;;2.50;1.20;;;22.60;89.90;;;;;;7395748;19;20451;-46
2022/08/20 00:29:48;;;;;;;5.40;1.50;;;22.60;90.70;;;;;;7393670;19;20741;-46
2022/08/20 00:32:17;;;;;;;2.60;2.13;;;22.60;90.70;;;;;;7384891;19;20392;-46
2022/08/20 00:34:47;;;;;;;2.00;1.60;;;22.70;90.30;;;;;;7390074;19;21032;-46
2022/08/20 00:37:17;;;;;;;1.73;1.47;;;22.70;90.30;;;;;;7394530;19;20383;-46
2022/08/20 00:39:49;;;;;;;1.27;1.17;;;22.70;90.80;;;;;;7394357;19;20996;-46
2022/08/20 00:42:18;;;;;;;3.03;1.20;;;22.70;90.10;;;;;;7396623;19;20376;-46
2022/08/20 00:44:50;;;;;;;2.73;1.30;;;22.70;90.10;;;;;;7393404;19;20424;-46
2022/08/20 00:47:19;;;;;;;1.40;1.20;;;22.70;90.30;;;;;;7396605;19;20372;-46
2022/08/20 00:49:49;;;;;;;1.77;1.33;;;22.60;91.50;;;;;;7392300;19;20459;-46
2022/08/20 00:52:20;;;;;;;1.13;1.03;;;22.70;90.50;;;;;;7388075;19;20380;-46
2022/08/20 00:54:56;;;;;;;1.37;1.27;;;22.70;90.30;;;;;;7392452;19;20397;-46
2022/08/20 00:57:30;;;;;;;1.20;1.10;;;22.70;90.10;;;;;;7397150;19;20943;-46
2022/08/20 01:00:01;;;;;;;1.43;1.33;;;22.60;90.20;;;;;;7391511;19;20712;-46
2022/08/20 01:02:33;;;;;;;1.37;1.27;;;22.70;90.30;;;;;;7391131;19;20376;-46
2022/08/20 01:05:03;;;;;;;1.43;1.30;;;22.70;90.80;;;;;;7388412;19;20424;-46
2022/08/20 01:07:35;;;;;;;2.93;1.40;;;22.80;89.30;;;;;;7392412;19;20419;-46
2022/08/20 01:10:12;;;;;;;1.53;1.23;;;22.80;89.70;;;;;;7395500;19;20384;-46
2022/08/20 01:12:47;;;;;;;1.70;1.40;;;22.80;88.20;;;;;;7390930;19;20756;-46
2022/08/20 01:15:21;;;;;;;2.03;1.23;;;22.90;89.00;;;;;;7392505;19;20440;-46
2022/08/20 01:17:53;;;;;;;1.70;1.60;;;22.90;87.70;;;;;;7391624;19;20386;-46
2022/08/20 01:20:26;;;;;;;1.93;1.40;;;22.90;89.70;;;;;;7388980;19;20368;-45
2022/08/20 01:25:52;;;;;;;1.73;1.27;;;22.90;88.10;;;;;;7391255;19;20934;-46
2022/08/20 01:28:25;;;;;;;1.20;1.10;;;22.90;89.50;;;;;;7391365;19;20372;-46
2022/08/20 01:30:55;;;;;;;1.70;1.53;;;22.80;87.60;;;;;;7389966;19;20368;-46
2022/08/20 01:33:25;;;;;;;1.87;1.50;;;22.90;88.30;;;;;;7387089;19;20373;-46
2022/08/20 01:35:56;;;;;;;1.73;1.57;;;22.90;88.20;;;;;;7383447;19;20390;-46
2022/08/20 01:38:25;;;;;;;1.80;1.40;;;22.90;88.50;;;;;;7387664;19;20376;-45
2022/08/20 01:41:30;;;;;;;1.77;1.50;;;22.90;89.10;;;;;;7379009;19;20926;-46
2022/08/20 01:44:00;;;;;;;1.20;1.03;;;22.90;88.30;;;;;;7381888;19;20372;-46
2022/08/20 01:46:36;;;;;;;1.50;1.40;;;22.60;90.20;;;;;;7380761;19;20380;-48
2022/08/20 01:49:11;;;;;;;1.90;1.40;;;22.60;90.70;;;;;;7385718;19;20749;-45
2022/08/20 01:51:40;;;;;;;2.33;1.33;;;22.30;91.70;;;;;;7383603;19;20945;-46
2022/08/20 01:54:10;;;;;;;1.23;1.10;;;22.20;92.80;;;;;;7379240;19;20380;-46
2022/08/20 01:56:57;;;;;;;2.50;1.43;;;22.10;93.00;;;;;;7382654;19;21283;-46
2022/08/20 01:59:27;;;;;;;1.37;1.27;;;22.20;93.10;;;;;;7385222;19;20384;-46
2022/08/20 02:02:01;;;;;;;1.27;1.00;;;22.10;93.30;;;;;;7380932;19;21093;-46
2022/08/20 02:04:31;;;;;;;1.53;1.20;;;22.00;94.10;;;;;;7380236;19;20401;-46
2022/08/20 02:07:05;;;;;;;1.20;1.10;;;22.10;94.40;;;;;;7380154;19;20376;-46
2022/08/20 02:09:38;;;;;;;2.37;1.40;;;22.10;94.30;;;;;;7385290;19;20378;-46
2022/08/20 02:12:12;;;;;;;2.13;1.07;;;22.10;94.30;;;;;;7386572;19;20376;-46
2022/08/20 02:14:43;;;;;;;1.30;1.20;;;21.80;96.50;;;;;;7378553;19;20357;-46
2022/08/20 02:17:14;;;;;;;3.53;1.40;;;21.60;98.70;;;;;;7378236;19;20512;-47
2022/08/20 02:19:49;;;;;;;1.57;1.37;;;21.60;98.50;;;;;;7384736;19;20391;-46
2022/08/20 02:22:25;;;;;;;1.60;1.00;;;21.70;98.30;;;;;;7382438;19;20380;-46
2022/08/20 02:24:56;;;;;;;1.87;1.17;;;21.60;99.20;;;;;;7382336;19;20384;-45
2022/08/20 02:27:28;;;;;;;2.07;1.57;;;21.60;99.40;;;;;;7381956;19;20361;-45
2022/08/20 02:29:59;;;;;;;1.53;1.13;;;21.40;99.90;;;;;;7381378;19;20439;-46
2022/08/20 02:32:28;;;;;;;1.83;1.20;;;21.50;99.90;;;;;;7377539;19;20416;-46
2022/08/20 02:34:58;;;;;;;1.33;1.23;;;21.50;99.90;;;;;;7378434;19;20392;-45
2022/08/20 02:37:27;;;;;;;1.73;1.10;;;21.40;99.90;;;;;;7382485;19;20445;-45
2022/08/20 02:39:57;;;;;;;1.63;1.20;;;21.50;99.90;;;;;;7381898;19;20368;-46
2022/08/20 02:42:29;;;;;;;3.63;1.50;;;21.40;99.90;;;;;;7384380;19;20786;-45
2022/08/20 02:44:59;;;;;;;3.53;1.40;;;21.20;99.90;;;;;;7383180;19;20411;-45
2022/08/20 02:47:29;;;;;;;1.43;1.20;;;21.40;99.90;;;;;;7382499;19;20910;-46
2022/08/20 02:49:59;;;;;;;2.33;1.40;;;21.40;99.90;;;;;;7380139;19;20372;-45
2022/08/20 02:52:28;;;;;;;1.80;1.67;;;21.50;99.90;;;;;;7383166;19;20372;-46
2022/08/20 02:54:58;;;;;;;1.40;1.30;;;21.60;99.90;;;;;;7381785;19;20799;-46
2022/08/20 02:57:30;;;;;;;1.43;1.33;;;21.80;99.90;;;;;;7384645;19;20702;-46
2022/08/20 03:00:00;;;;;;;1.27;1.17;;;21.90;98.90;;;;;;7384411;19;20413;-46
2022/08/20 03:02:30;;;;;;;1.83;1.63;;;22.10;97.50;;;;;;7383455;19;21038;-46
2022/08/20 03:05:00;;;;;;;1.77;1.50;;;22.10;96.70;;;;;;7377925;19;20391;-46
2022/08/20 03:07:30;;;;;;;1.33;1.23;;;22.20;96.10;;;;;;7385379;19;20872;-46
2022/08/20 03:10:00;;;;;;;1.60;1.50;;;22.20;95.80;;;;;;7380523;19;20971;-46
2022/08/20 03:12:34;;;;;;;1.33;1.20;;;22.30;95.60;;;;;;7378561;19;20372;-46
2022/08/20 03:15:04;;;;;;;2.00;1.30;;;22.30;95.40;;;;;;7383485;19;20391;-46
2022/08/20 03:17:33;;;;;;;1.30;1.13;;;22.30;95.10;;;;;;7381103;19;20948;-46
2022/08/20 03:20:03;;;;;;;3.20;1.10;;;22.20;95.10;;;;;;7378335;19;20372;-46
2022/08/20 03:22:32;;;;;;;2.20;1.30;;;22.20;95.40;;;;;;7381247;19;20372;-46
2022/08/20 03:25:02;;;;;;;1.60;1.50;;;22.20;95.20;;;;;;7380228;19;20371;-46
2022/08/20 03:27:36;;;;;;;1.23;1.13;;;22.10;95.70;;;;;;7382490;19;20387;-46
2022/08/20 03:30:09;;;;;;;1.83;1.50;;;22.20;95.70;;;;;;7378858;19;21241;-46
2022/08/20 03:32:39;;;;;;;2.40;1.50;;;22.30;95.40;;;;;;7384954;19;20388;-45
2022/08/20 03:35:12;;;;;;;1.40;1.27;;;22.10;95.80;;;;;;7375469;19;20365;-46
2022/08/20 03:37:42;;;;;;;1.93;1.53;;;22.10;95.90;;;;;;7385428;19;20388;-46
2022/08/20 03:40:15;;;;;;;2.60;1.40;;;22.00;96.70;;;;;;7379223;19;20407;-45
2022/08/20 03:42:47;;;;;;;1.53;1.40;;;22.10;96.60;;;;;;7381444;19;20379;-46
2022/08/20 03:45:17;;;;;;;2.10;1.90;;;22.10;96.60;;;;;;7381296;19;20372;-46
2022/08/20 03:47:47;;;;;;;1.50;1.40;;;22.10;96.70;;;;;;7382843;19;20437;-46
2022/08/20 03:50:17;;;;;;;1.47;1.37;;;22.10;96.90;;;;;;7374933;19;20820;-45
2022/08/20 03:52:46;;;;;;;2.30;1.53;;;22.10;97.40;;;;;;7376862;19;20369;-47
2022/08/20 03:55:16;;;;;;;2.47;1.60;;;22.20;96.70;;;;;;7380964;19;20380;-46
2022/08/20 03:57:50;;;;;;;2.43;1.70;;;22.30;96.20;;;;;;7377840;19;20419;-46
2022/08/20 04:00:24;;;;;;;2.30;1.60;;;22.40;95.60;;;;;;7381295;19;20436;-47
2022/08/20 04:02:56;;;;;;;2.13;1.63;;;22.40;95.40;;;;;;7379237;19;20384;-46
2022/08/20 04:05:25;;;;;;;1.60;1.50;;;22.40;94.90;;;;;;7375871;19;20395;-46
2022/08/20 04:07:56;;;;;;;1.37;1.27;;;22.40;94.80;;;;;;7375755;19;20456;-46
2022/08/20 04:10:26;;;;;;;2.67;2.03;;;22.40;94.80;;;;;;7381091;19;20372;-46
2022/08/20 04:13:00;;;;;;;2.20;2.00;;;22.30;95.20;;;;;;7379998;19;20418;-47
2022/08/20 04:15:31;;;;;;;1.87;1.67;;;22.30;95.50;;;;;;7382566;19;20397;-46
2022/08/20 04:18:01;;;;;;;1.80;1.70;;;22.20;95.80;;;;;;7380503;19;20407;-46
2022/08/20 04:20:31;;;;;;;3.80;2.20;;;22.20;95.90;;;;;;7378050;19;20412;-46
2022/08/20 04:23:00;;;;;;;1.93;1.80;;;22.30;96.10;;;;;;7378826;19;20440;-46
2022/08/20 04:25:30;;;;;;;2.20;2.00;;;22.30;96.30;;;;;;7381190;19;20483;-46
2022/08/20 04:28:04;;;;;;;1.80;1.70;;;22.10;96.60;;;;;;7375555;19;20383;-46
2022/08/20 04:30:36;;;;;;;1.93;1.83;;;22.10;96.80;;;;;;7375312;19;20388;-46
2022/08/20 04:33:06;;;;;;;2.43;2.00;;;22.20;97.00;;;;;;7378935;19;20932;-47
2022/08/20 04:35:35;;;;;;;2.20;2.00;;;22.30;96.50;;;;;;7378487;19;20396;-45
2022/08/20 04:38:06;;;;;;;2.37;2.17;;;22.30;96.40;;;;;;7377953;19;20413;-46
2022/08/20 04:43:22;;;;;;;2.33;2.13;;;22.20;98.20;;;;;;7377057;19;20382;-46
2022/08/20 04:45:52;;;;;;;2.77;2.30;;;22.30;98.20;;;;;;7379347;19;20475;-46
2022/08/20 04:48:24;;;;;;;2.57;2.10;;;22.20;98.60;;;;;;7379104;19;20372;-46
2022/08/20 04:50:55;;;;;;;2.50;2.23;;;22.20;99.20;;;;;;7374946;19;20930;-46
2022/08/20 04:53:26;;;;;;;4.50;2.30;;;22.10;99.90;;;;;;7377715;19;20403;-46
2022/08/20 04:55:58;;;;;;;3.93;2.77;;;21.90;99.90;;;;;;7380854;19;20379;-46
2022/08/20 04:58:32;;;;;;;4.27;3.07;;;21.80;99.90;;;;;;7381449;19;20413;-46
2022/08/20 05:01:04;;;;;;;3.30;3.00;;;21.70;99.90;;;;;;7376135;19;20461;-46
2022/08/20 05:03:34;;;;;;;4.03;2.97;;;21.60;99.90;;;;;;7374544;19;20428;-46
2022/08/20 05:06:04;;;;;;;2.80;2.60;;;21.60;99.90;;;;;;7367767;19;20455;-46
2022/08/20 05:08:37;;;;;;;3.60;2.93;;;21.50;99.90;;;;;;7379616;19;20439;-47
2022/08/20 05:11:08;;;;;;;3.27;3.07;;;21.60;99.90;;;;;;7384452;19;20396;-46
2022/08/20 05:13:41;;;;;;;3.30;3.00;;;21.60;99.90;;;;;;7378433;19;20367;-47
2022/08/20 05:16:11;;;;;;;2.70;2.50;;;21.70;99.90;;;;;;7379910;19;20364;-46
2022/08/20 05:18:42;;;;;;;4.50;2.90;;;21.80;99.90;;;;;;7383131;19;20934;-45
2022/08/20 05:21:13;;;;;;;3.03;2.60;;;21.80;99.90;;;;;;7382351;19;20383;-45
2022/08/20 05:23:45;;;;;;;3.20;2.90;;;21.90;99.90;;;;;;7382862;19;20388;-45
2022/08/20 05:26:14;;;;;;;2.70;2.50;;;22.00;99.90;;;;;;7376089;19;20364;-46
2022/08/20 05:28:47;;;;;;;4.20;2.57;;;21.90;99.90;;;;;;7379059;19;20390;-47
2022/08/20 05:31:18;;;;;;;3.70;3.37;;;22.00;99.90;;;;;;7381199;19;20399;-45
2022/08/20 05:33:50;;;;;;;3.10;2.80;;;22.00;99.90;;;;;;7389255;19;20375;-45
2022/08/20 05:36:20;;;;;;;3.70;2.83;;;21.90;99.90;;;;;;7385394;19;20404;-45
2022/08/20 05:38:50;;;;;;;2.90;2.70;;;22.00;99.90;;;;;;7384952;19;21507;-45
2022/08/20 05:41:20;;;;;;;2.73;2.50;;;21.90;99.90;;;;;;7384099;19;20373;-45
2022/08/20 05:43:52;;;;;;;2.77;2.57;;;21.80;99.90;;;;;;7390339;19;20381;-45
2022/08/20 05:46:25;;;;;;;5.73;2.90;;;21.90;99.90;;;;;;7382545;19;20989;-45
2022/08/20 05:48:54;;;;;;;3.40;3.10;;;21.90;99.90;;;;;;7384924;19;20379;-45
2022/08/20 05:51:24;;;;;;;3.60;3.30;;;21.60;99.90;;;;;;7383861;19;20364;-47
2022/08/20 05:53:53;;;;;;;3.40;3.10;;;21.40;99.90;;;;;;7382168;19;20421;-47
2022/08/20 05:56:22;;;;;;;4.00;3.63;;;21.40;99.90;;;;;;7382843;19;21206;-45
2022/08/20 05:58:55;;;;;;;3.27;2.80;;;21.20;99.90;;;;;;7389996;19;20412;-45
2022/08/20 06:01:24;;;;;;;3.17;2.87;;;21.40;99.90;;;;;;7383503;19;20898;-45
2022/08/20 06:06:36;;;;;;;3.20;2.73;;;21.60;99.90;;;;;;7381868;19;20796;-45
2022/08/20 06:09:09;;;;;;;3.03;2.83;;;21.50;99.90;;;;;;7381268;19;20445;-45
2022/08/20 06:11:38;;;;;;;2.90;2.53;;;21.60;99.90;;;;;;7383089;19;20395;-45
2022/08/20 06:14:10;;;;;;;3.40;3.10;;;21.90;99.90;;;;;;7386483;19;20425;-46
2022/08/20 06:16:40;;;;;;;3.20;2.90;;;22.00;99.90;;;;;;7381543;19;20376;-45
2022/08/20 06:19:10;;;;;;;5.10;4.20;;;22.30;99.90;;;;;;7378772;19;20369;-45
2022/08/20 06:21:39;;;;;;;2.87;2.67;;;22.50;99.90;;;;;;7387002;19;20403;-45
2022/08/20 06:24:10;;;;;;;2.87;2.60;;;22.70;99.30;;;;;;7383318;19;20380;-45
2022/08/20 06:26:39;;;;;;;3.47;2.67;;;22.90;97.20;;;;;;7382862;19;20408;-46
2022/08/20 06:29:11;;;;;;;3.70;3.00;;;22.90;96.90;;;;;;7380990;19;20376;-46
2022/08/20 06:31:44;;;;;;;4.03;3.50;;;22.90;96.70;;;;;;7382712;19;20375;-46
2022/08/20 06:34:13;;;;;;;3.33;3.10;;;22.80;96.90;;;;;;7377691;19;20449;-46
2022/08/20 06:36:45;;;;;;;2.50;2.30;;;22.90;97.00;;;;;;7384119;19;20380;-46
2022/08/20 06:39:18;;;;;;;3.13;2.83;;;22.90;96.80;;;;;;7383465;19;20417;-46
2022/08/20 06:41:47;;;;;;;4.70;2.87;;;22.90;96.50;;;;;;7384083;19;20376;-46
2022/08/20 06:44:23;;;;;;;2.90;2.60;;;22.90;96.10;;;;;;7376444;19;20376;-46
2022/08/20 06:46:53;;;;;;;5.83;2.80;;;22.90;96.30;;;;;;7377813;19;20379;-46
2022/08/20 06:49:22;;;;;;;3.20;2.90;;;22.90;96.50;;;;;;7375674;19;20375;-46
2022/08/20 06:51:54;;;;;;;3.53;3.00;;;23.00;95.90;;;;;;7374671;19;20439;-46
2022/08/20 06:54:23;;;;;;;3.10;2.77;;;23.00;95.60;;;;;;7378263;19;20793;-46
2022/08/20 06:56:53;;;;;;;2.97;2.60;;;23.00;95.50;;;;;;7366748;19;20918;-46
2022/08/20 06:59:25;;;;;;;3.37;3.07;;;23.10;94.40;;;;;;7380607;19;20453;-46
2022/08/20 07:01:56;;;;;;;4.17;3.00;;;23.30;93.50;;;;;;7374190;19;20420;-46
2022/08/20 07:04:26;;;;;;;2.77;2.53;;;23.40;93.40;;;;;;7376422;19;20695;-46
2022/08/20 07:06:57;;;;;;;2.73;2.47;;;23.30;93.30;;;;;;7380473;19;20376;-46
2022/08/20 07:09:28;;;;;;;2.93;2.63;;;23.30;93.30;;;;;;7381284;19;20396;-46
2022/08/20 07:11:59;;;;;;;3.70;2.90;;;23.20;93.20;;;;;;7374602;19;20391;-46
2022/08/20 07:14:31;;;;;;;4.07;2.77;;;23.30;93.20;;;;;;7385284;19;20420;-46
2022/08/20 07:17:04;;;;;;;4.40;2.97;;;23.30;93.30;;;;;;7378574;19;20386;-46
2022/08/20 07:19:34;;;;;;;2.40;2.20;;;23.30;92.50;;;;;;7379282;19;20378;-46
2022/08/20 07:22:04;;;;;;;3.87;3.17;;;23.40;91.90;;;;;;7371876;19;20987;-46
2022/08/20 07:24:37;;;;;;;3.40;2.50;;;23.40;92.30;;;;;;7374521;19;20372;-46
2022/08/20 07:27:06;;;;;;;4.30;2.97;;;23.20;93.20;;;;;;7380388;19;20380;-46
2022/08/20 07:32:36;;;;;;;2.87;2.57;;;23.20;93.80;;;;;;7377789;19;20372;-47
2022/08/20 07:35:08;;;;;;;3.60;2.20;;;23.20;93.20;;;;;;7376448;19;20741;-47
2022/08/20 07:37:40;;;;;;;3.70;2.73;;;23.50;92.10;;;;;;7374329;19;20442;-46
2022/08/20 07:40:13;;;;;;;13.30;2.73;;;23.70;91.00;;;;;;7374286;19;20368;-46
2022/08/20 07:42:43;;;;;;;3.20;2.47;;;23.90;90.00;;;;;;7379793;19;20726;-47
2022/08/20 07:45:17;;;;;;;3.03;2.73;;;24.00;89.10;;;;;;7371153;19;20380;-47
2022/08/20 07:47:48;;;;;;;2.83;2.50;;;23.80;90.30;;;;;;7382185;19;21093;-47
2022/08/20 07:50:23;;;;;;;2.83;2.60;;;23.80;90.00;;;;;;7371064;19;21042;-46
2022/08/20 07:52:53;;;;;;;3.30;2.77;;;24.00;87.60;;;;;;7379877;19;20982;-47
2022/08/20 07:55:23;;;;;;;3.57;2.67;;;23.90;88.50;;;;;;7374929;19;20387;-47
2022/08/20 07:57:53;;;;;;;4.33;2.70;;;24.00;88.60;;;;;;7385056;19;20479;-47
2022/08/20 08:00:26;;;;;;;3.30;2.50;;;24.10;88.20;;;;;;7374460;19;21527;-47
2022/08/20 08:02:55;;;;;;;3.90;2.70;;;24.40;86.50;;;;;;7381675;19;20741;-46
2022/08/20 08:05:25;;;;;;;3.30;2.97;;;24.60;84.40;;;;;;7380316;19;20395;-46
2022/08/20 08:07:54;;;;;;;2.40;2.27;;;24.90;82.00;;;;;;7381884;19;20738;-46
2022/08/20 08:10:25;;;;;;;2.70;2.50;;;25.10;80.50;;;;;;7381218;19;20368;-46
2022/08/20 08:12:59;;;;;;;4.00;2.70;;;25.20;79.20;;;;;;7377529;19;20725;-46
2022/08/20 08:15:39;;;;;;;6.40;3.10;;;25.20;78.80;;;;;;7381160;19;20376;-46
2022/08/20 08:18:15;;;;;;;3.23;2.77;;;25.20;78.80;;;;;;7375849;19;20375;-46
2022/08/20 08:20:46;;;;;;;4.57;2.70;;;25.30;78.10;;;;;;7377092;19;20368;-47
2022/08/20 08:23:15;;;;;;;2.80;2.40;;;25.40;76.90;;;;;;7374241;19;20447;-47
2022/08/20 08:25:45;;;;;;;4.27;2.97;;;25.50;77.50;;;;;;7380073;19;20387;-46
2022/08/20 08:28:15;;;;;;;3.63;2.40;;;25.60;75.90;;;;;;7382383;19;20364;-46
2022/08/20 08:30:48;;;;;;;2.50;2.30;;;25.90;74.80;;;;;;7372279;19;20412;-47
2022/08/20 08:33:32;;;;;;;2.10;1.90;;;26.10;73.40;;;;;;7381186;19;20372;-47
2022/08/20 08:36:04;;;;;;;2.53;2.10;;;26.20;72.60;;;;;;7382756;19;21119;-46
2022/08/20 08:38:36;;;;;;;3.00;2.70;;;26.30;71.30;;;;;;7374254;19;20364;-47
2022/08/20 08:41:17;;;;;;;2.60;2.20;;;26.40;70.00;;;;;;7383106;19;20397;-46
2022/08/20 08:43:48;;;;;;;3.03;2.73;;;26.50;69.70;;;;;;7375948;19;20918;-47
2022/08/20 08:46:25;;;;;;;3.07;2.70;;;26.50;69.10;;;;;;7383377;19;20915;-47
2022/08/20 08:49:00;;;;;;;3.33;3.00;;;26.20;70.60;;;;;;7387408;19;20380;-46
2022/08/20 08:51:35;;;;;;;2.90;2.70;;;25.60;73.10;;;;;;7382392;19;20375;-47
2022/08/20 08:54:06;;;;;;;4.20;2.33;;;25.70;73.50;;;;;;7381157;19;20379;-46
2022/08/20 08:56:37;;;;;;;2.53;2.33;;;25.60;72.80;;;;;;7388804;19;20798;-47
2022/08/20 08:59:09;;;;;;;3.20;2.47;;;25.60;72.50;;;;;;7375924;19;20412;-47
2022/08/20 09:01:46;;;;;;;3.63;3.00;;;25.40;73.00;;;;;;7381988;19;20416;-47
2022/08/20 09:04:16;;;;;;;4.90;2.40;;;25.50;73.20;;;;;;7379429;19;20783;-46
2022/08/20 09:06:46;;;;;;;3.50;2.70;;;25.30;72.80;;;;;;7376468;19;20372;-46
2022/08/20 09:09:21;;;;;;;3.40;2.37;;;25.30;73.40;;;;;;7388513;19;20729;-47
2022/08/20 09:11:55;;;;;;;2.77;2.40;;;25.40;72.90;;;;;;7381425;19;21065;-47
2022/08/20 09:14:25;;;;;;;3.87;2.80;;;25.40;73.30;;;;;;7383935;19;20376;-46
2022/08/20 09:16:58;;;;;;;2.90;2.60;;;25.40;72.40;;;;;;7377770;19;20383;-46
2022/08/20 09:19:29;;;;;;;2.53;2.30;;;25.40;72.40;;;;;;7379658;19;20384;-47
2022/08/20 09:22:09;;;;;;;5.10;2.60;;;25.30;73.00;;;;;;7385836;19;20364;-46
2022/08/20 09:24:39;;;;;;;2.90;2.50;;;25.30;73.20;;;;;;7381279;19;20459;-47
2022/08/20 09:27:09;;;;;;;2.63;2.23;;;25.20;72.70;;;;;;7387502;19;20379;-47
2022/08/20 09:29:39;;;;;;;3.77;2.60;;;25.20;72.10;;;;;;7388540;19;20387;-46
2022/08/20 09:32:14;;;;;;;2.77;2.57;;;25.10;72.90;;;;;;7382341;19;20383;-47
2022/08/20 09:34:45;;;;;;;2.90;2.70;;;25.10;74.10;;;;;;7378768;19;20985;-46
2022/08/20 09:37:20;;;;;;;2.30;2.10;;;25.10;74.10;;;;;;7372600;19;20383;-46
2022/08/20 09:39:49;;;;;;;2.47;2.27;;;25.20;72.90;;;;;;7383697;19;20779;-47
2022/08/20 09:42:21;;;;;;;2.60;2.40;;;25.30;71.70;;;;;;7386603;19;20464;-47
2022/08/20 09:44:51;;;;;;;2.70;1.90;;;25.50;71.10;;;;;;7383991;19;20379;-47
2022/08/20 09:47:24;;;;;;;3.30;2.30;;;25.50;70.00;;;;;;7385620;19;20802;-47
2022/08/20 09:49:53;;;;;;;2.30;1.87;;;25.70;69.70;;;;;;7385700;19;20365;-47
2022/08/20 09:52:25;;;;;;;1.80;1.40;;;25.70;68.60;;;;;;7377100;19;20365;-47
2022/08/20 09:54:59;;;;;;;3.30;2.43;;;25.60;68.30;;;;;;7380956;19;20419;-47
2022/08/20 09:57:30;;;;;;;2.80;1.47;;;25.70;68.30;;;;;;7371780;19;20428;-47
2022/08/20 10:00:03;;;;;;;2.50;1.63;;;25.70;67.50;;;;;;7378897;19;20918;-47
2022/08/20 10:02:44;;;;;;;2.30;1.30;;;26.50;67.20;;;;;;7376715;19;20397;-47
2022/08/20 10:05:14;;;;;;;1.77;1.50;;;27.40;62.40;;;;;;7373012;19;22671;-48
2022/08/20 10:07:44;;;;;;;1.40;1.30;;;27.60;60.90;;;;;;7378896;19;20944;-47
2022/08/20 10:10:16;;;;;;;1.80;1.20;;;27.40;60.20;;;;;;7379176;19;21421;-48
2022/08/20 10:12:45;;;;;;;1.60;1.40;;;26.90;61.90;;;;;;7374369;19;20417;-47
2022/08/20 10:15:16;;;;;;;2.07;1.57;;;27.10;61.90;;;;;;7377330;19;20974;-47
2022/08/20 10:17:48;;;;;;;2.30;1.13;;;27.30;60.50;;;;;;7379807;19;20371;-47
2022/08/20 10:20:17;;;;;;;1.57;1.10;;;27.10;60.30;;;;;;7376579;19;20387;-47
2022/08/20 10:22:47;;;;;;;1.77;1.40;;;27.10;60.60;;;;;;7385248;19;20418;-47
2022/08/20 10:25:18;;;;;;;2.40;1.43;;;27.10;61.00;;;;;;7370943;19;20450;-47
2022/08/20 10:27:47;;;;;;;2.07;1.83;;;27.00;60.90;;;;;;7374917;19;20921;-47
2022/08/20 10:30:17;;;;;;;2.13;1.37;;;27.10;61.70;;;;;;7367616;19;20970;-49
2022/08/20 10:32:50;;;;;;;2.53;1.40;;;27.20;62.30;;;;;;7362711;19;20953;-47
2022/08/20 10:35:22;;;;;;;1.73;1.43;;;27.30;62.50;;;;;;7377655;19;20416;-47
2022/08/20 10:37:52;;;;;;;0.87;0.83;;;27.10;62.50;;;;;;7383162;19;20414;-47
2022/08/20 10:40:21;;;;;;;2.17;0.90;;;26.90;63.00;;;;;;7380685;19;20852;-47
2022/08/20 10:42:51;;;;;;;1.17;0.80;;;26.60;63.20;;;;;;7382817;19;20416;-47
2022/08/20 10:45:21;;;;;;;1.60;1.13;;;26.40;64.80;;;;;;7378412;19;20966;-47
2022/08/20 10:47:55;;;;;;;1.40;0.70;;;27.00;62.60;;;;;;7377831;19;20802;-47
2022/08/20 10:50:28;;;;;;;1.27;1.00;;;27.30;60.90;;;;;;7377415;19;21060;-47
2022/08/20 10:52:57;;;;;;;0.93;0.80;;;27.90;59.00;;;;;;7372103;19;20401;-47
2022/08/20 10:55:27;;;;;;;0.80;0.60;;;28.40;57.80;;;;;;7379805;19;20395;-47
2022/08/20 10:57:58;;;;;;;0.80;0.80;;;28.70;56.40;;;;;;7379642;19;20381;-47
2022/08/20 11:00:28;;;;;;;1.40;1.30;;;28.80;56.00;;;;;;7381841;19;20440;-47
2022/08/20 11:03:00;;;;;;;1.80;1.20;;;28.70;56.50;;;;;;7373843;19;20824;-47
2022/08/20 11:05:30;;;;;;;2.43;1.10;;;28.20;58.20;;;;;;7378098;19;20988;-47
2022/08/20 11:07:59;;;;;;;3.10;1.10;;;27.60;58.80;;;;;;7376513;19;20765;-46
2022/08/20 11:10:32;;;;;;;1.03;0.90;;;27.00;60.30;;;;;;7378688;19;20383;-47
2022/08/20 11:13:02;;;;;;;1.40;0.93;;;26.40;62.60;;;;;;7376736;19;20372;-47
2022/08/20 11:15:32;;;;;;;3.60;0.93;;;26.40;64.00;;;;;;7382874;19;20383;-47
2022/08/20 11:18:04;;;;;;;1.00;0.80;;;26.40;63.00;;;;;;7380472;19;20372;-47
2022/08/20 11:20:35;;;;;;;0.87;0.67;;;26.50;61.90;;;;;;7378922;19;20377;-47
2022/08/20 11:23:04;;;;;;;1.00;0.90;;;26.70;60.00;;;;;;7379507;19;20372;-47
2022/08/20 11:25:34;;;;;;;1.60;1.00;;;26.70;60.00;;;;;;7376791;19;20391;-47
2022/08/20 11:28:04;;;;;;;1.23;0.90;;;26.50;60.10;;;;;;7368278;19;21063;-47
2022/08/20 11:30:36;;;;;;;0.90;0.67;;;26.40;61.00;;;;;;7376946;19;20961;-47
2022/08/20 11:33:09;;;;;;;1.37;0.90;;;26.40;60.60;;;;;;7359534;19;20368;-47
2022/08/20 11:35:38;;;;;;;1.77;0.70;;;26.20;60.70;;;;;;7362908;19;20364;-47
2022/08/20 11:38:08;;;;;;;1.17;0.90;;;26.10;61.10;;;;;;7378799;19;20383;-47
2022/08/20 11:40:41;;;;;;;0.90;0.63;;;25.90;62.30;;;;;;7375015;19;20369;-47
2022/08/20 11:43:10;;;;;;;1.17;0.70;;;25.90;62.80;;;;;;7366028;19;20379;-47
2022/08/20 11:45:40;;;;;;;1.00;0.80;;;25.70;63.00;;;;;;7364563;19;20390;-47
2022/08/20 11:48:12;;;;;;;0.80;0.53;;;25.60;62.80;;;;;;7361895;19;20459;-47
2022/08/20 11:50:41;;;;;;;1.00;0.80;;;25.70;62.40;;;;;;7377695;19;20376;-47
2022/08/20 11:53:11;;;;;;;1.93;1.20;;;25.70;62.40;;;;;;7378344;19;20380;-46
2022/08/20 11:55:41;;;;;;;1.50;0.90;;;25.70;62.80;;;;;;7382021;19;20372;-47
2022/08/20 11:58:11;;;;;;;0.90;0.63;;;25.70;63.10;;;;;;7379150;19;20365;-47
2022/08/20 12:00:41;;;;;;;2.37;0.70;;;25.80;63.30;;;;;;7381673;19;20420;-47
2022/08/20 12:03:15;;;;;;;1.53;0.80;;;25.90;63.50;;;;;;7382166;19;20397;-47
2022/08/20 12:05:47;;;;;;;0.97;0.70;;;25.90;63.80;;;;;;7378991;19;20925;-47
2022/08/20 12:08:18;;;;;;;2.30;1.73;;;25.90;63.90;;;;;;7378441;19;20719;-47
2022/08/20 12:10:47;;;;;;;1.63;1.17;;;25.90;64.10;;;;;;7382085;19;20914;-47
2022/08/20 12:13:17;;;;;;;1.13;0.80;;;25.80;64.60;;;;;;7378642;19;20931;-47
2022/08/20 12:15:48;;;;;;;1.53;1.43;;;25.90;64.80;;;;;;7380718;19;20393;-47
2022/08/20 12:18:21;;;;;;;1.63;1.23;;;25.90;64.70;;;;;;7383618;19;20379;-47
2022/08/20 12:20:50;;;;;;;1.63;1.10;;;26.00;63.80;;;;;;7381681;19;20908;-47
2022/08/20 12:23:19;;;;;;;1.00;0.70;;;25.90;62.80;;;;;;7381491;19;20937;-48
2022/08/20 12:25:49;;;;;;;0.70;0.63;;;26.00;62.80;;;;;;7382657;19;20377;-47
2022/08/20 12:28:21;;;;;;;0.90;0.67;;;26.10;62.30;;;;;;7382266;19;20470;-48
2022/08/20 12:30:50;;;;;;;2.10;1.00;;;26.20;62.20;;;;;;7378756;19;20372;-47
2022/08/20 12:33:23;;;;;;;0.90;0.70;;;26.20;62.40;;;;;;7380550;19;20380;-47
2022/08/20 12:35:52;;;;;;;0.60;0.53;;;26.30;61.30;;;;;;7381685;19;20747;-47
2022/08/20 12:38:22;;;;;;;1.07;0.73;;;26.40;61.70;;;;;;7380535;19;20368;-48
2022/08/20 12:40:52;;;;;;;1.80;0.73;;;26.50;61.30;;;;;;7381006;19;20404;-47
2022/08/20 12:43:21;;;;;;;1.17;0.70;;;26.60;61.50;;;;;;7380423;19;20419;-47
2022/08/20 12:45:50;;;;;;;0.87;0.67;;;26.70;61.10;;;;;;7376053;19;20372;-47
2022/08/20 12:48:23;;;;;;;0.70;0.53;;;26.80;60.80;;;;;;7381085;19;20404;-47
2022/08/20 12:50:52;;;;;;;0.70;0.50;;;27.00;60.40;;;;;;7379029;19;20377;-47
2022/08/20 12:53:21;;;;;;;1.03;0.67;;;27.20;60.00;;;;;;7380184;19;20466;-47
2022/08/20 12:55:51;;;;;;;0.87;0.63;;;27.30;59.40;;;;;;7381216;19;20393;-47
2022/08/20 12:58:20;;;;;;;2.20;0.80;;;27.50;59.10;;;;;;7383316;19;20898;-47
2022/08/20 13:00:50;;;;;;;0.97;0.87;;;27.40;59.00;;;;;;7380185;19;20955;-47
2022/08/20 13:03:22;;;;;;;1.43;0.60;;;27.10;59.70;;;;;;7380536;19;20946;-47
2022/08/20 13:05:53;;;;;;;1.23;0.83;;;27.10;59.80;;;;;;7380014;19;20395;-47
2022/08/20 13:08:22;;;;;;;1.00;0.90;;;26.90;60.00;;;;;;7377066;19;20381;-48
2022/08/20 13:10:51;;;;;;;1.40;1.10;;;26.80;60.40;;;;;;7381215;19;20380;-47
2022/08/20 13:13:21;;;;;;;1.17;1.00;;;26.60;61.50;;;;;;7382673;19;20387;-47
2022/08/20 13:15:51;;;;;;;1.40;0.97;;;26.30;62.50;;;;;;7380866;19;20479;-48
2022/08/20 13:18:23;;;;;;;1.60;1.40;;;26.10;65.00;;;;;;7357858;19;20869;-48
2022/08/20 13:20:53;;;;;;;1.20;1.10;;;26.00;66.70;;;;;;7381675;19;20392;-46